メインページ
METAR-TAF:

METAR-TAF

空港 :

東京 / 羽田国際空港, 日本

東京国際空港

緯度: 35-33N, 経度: 139-47E, 海抜: 5m

現時点の気象観測

当レポートは35分前の19:00(UTC)に作成
北/北東の風 10kt
気温 5°C
湿度 70%
気圧 1020 hPa
視程10km以上
高度1500ftの雲はほとんどない
高度3000ftの千切れ雲あり
高度11000ftの千切れ雲あり

METAR: RJTT 251900Z 02010KT 9999 FEW015 BKN030 BKN110 05/00 Q1020 NOSIG RMK 1CU015 6SC030 7AC110 A3013

時間: 04:35 (19:35 UTC)

予報

当レポートは2時間28分前の17:07(UTC)に作成
予報は25日の 18時(UTC)から 27日の 00時(UTC)まで有効
の風 12kt
視程10km以上
高度1000ftの雲はほとんどない
高度2000ftの千切れ雲あり
26日の 04時(UTC)から 26日の 06時(UTC)まで徐々に
東/北東の風 15kt
26日の 09時(UTC)から 26日の 12時(UTC)まで徐々に
北/北東の風 8kt

TAF: RJTT 251707Z 2518/2700 01012KT 9999 FEW010 BKN020 BECMG 2604/2606 07015KT BECMG 2609/2612 03008KT

4,000以上の空港の気象観測と天気予報(METAR報とTAF報)

利用可能な観測所は地図上に黄色い丸と赤い丸で示す。

丸の上にカーソルを重ねると観測所名を参照できる。

次にクリックすると気象観測と天気予報を参照できる。

マップの切り替え:黒色「×」印の緑ボタンをクリックして拡大、「-」印の緑ボタンをクリックして縮小、緑色の三角印をクリックして隣りの地図に切り替え


METAR-TAF: